Time;durP1;ratioP1;P1;durP2;ratioP2;P2;SDS_P1;SDS_P2;PMS_P1;PMS_P2;Temp;Humidity;BMP_temperature;BMP_pressure;BME280_temperature;BME280_humidity;BME280_pressure;Samples;Min_cycle;Max_cycle;Signal;HPM_P1;HPM_P2
2022/01/20 00:00:32;;;;;;;15.97;2.17;;;;;3.40;101614.00;;;;5064869;28;20239;-72
2022/01/20 00:03:22;;;;;;;11.30;2.50;;;;;3.40;101619.00;;;;5062074;28;20341;-71
2022/01/20 00:06:57;;;;;;;8.30;2.13;;;;;3.40;101620.00;;;;5065002;28;20285;-72
2022/01/20 00:09:44;;;;;;;14.23;2.63;;;;;3.50;101623.00;;;;5062857;28;20735;-75
2022/01/20 00:28:10;;;;;;;6.93;2.20;;;;;3.70;101613.00;;;;5057474;28;20610;-73
2022/01/20 00:31:06;;;;;;;15.30;3.20;;;;;3.70;101612.00;;;;5053412;28;20231;-73
2022/01/20 00:33:56;;;;;;;11.67;2.87;;;;;3.80;101620.00;;;;5062733;28;20371;-73
2022/01/20 00:39:47;;;;;;;17.13;2.50;;;;;3.90;101628.00;;;;5058704;28;20276;-74
2022/01/20 00:42:34;;;;;;;16.93;2.93;;;;;4.10;101626.00;;;;5063548;28;20358;-73
2022/01/20 00:45:21;;;;;;;14.77;3.33;;;;;4.00;101641.00;;;;5060766;28;20241;-71
2022/01/20 00:48:08;;;;;;;14.53;3.17;;;;;3.90;101623.00;;;;5059937;28;20256;-72
2022/01/20 00:50:54;;;;;;;16.43;2.80;;;;;3.90;101634.00;;;;5058373;28;20601;-72
2022/01/20 00:53:44;;;;;;;16.77;2.60;;;;;4.00;101624.00;;;;5061692;28;20292;-72
2022/01/20 00:56:30;;;;;;;13.57;2.43;;;;;4.00;101624.00;;;;5058977;28;20287;-73
2022/01/20 00:59:16;;;;;;;13.83;2.80;;;;;3.90;101633.00;;;;5057247;28;20777;-74
2022/01/20 01:02:06;;;;;;;17.87;2.73;;;;;3.80;101618.00;;;;5064007;28;20301;-72
2022/01/20 01:04:52;;;;;;;13.73;2.63;;;;;4.00;101630.00;;;;5056443;28;20235;-75
2022/01/20 01:07:47;;;;;;;13.40;2.57;;;;;3.90;101642.00;;;;5066760;28;20289;-73
2022/01/20 01:10:36;;;;;;;15.60;3.07;;;;;3.80;101631.00;;;;5067885;28;20382;-72
2022/01/20 01:13:24;;;;;;;9.63;2.60;;;;;3.80;101624.00;;;;5067948;28;20231;-68
2022/01/20 01:16:12;;;;;;;10.57;3.33;;;;;3.70;101623.00;;;;5067931;28;20233;-71
2022/01/20 01:22:21;;;;;;;13.07;2.47;;;;;3.50;101619.00;;;;5065889;28;20729;-73
2022/01/20 01:25:08;;;;;;;11.23;2.80;;;;;3.40;101638.00;;;;5055370;28;20350;-70
2022/01/20 01:27:56;;;;;;;14.70;3.13;;;;;3.70;101620.00;;;;5073774;28;20358;-72
2022/01/20 01:31:06;;;;;;;8.43;2.47;;;;;3.50;101620.00;;;;5066974;28;20620;-72
2022/01/20 01:33:56;;;;;;;10.20;2.70;;;;;3.60;101630.00;;;;5060003;28;20306;-71
2022/01/20 01:37:03;;;;;;;16.07;2.93;;;;;3.50;101628.00;;;;5070659;28;20278;-73
2022/01/20 01:39:50;;;;;;;10.53;2.30;;;;;3.50;101609.00;;;;5060962;28;20591;-72
2022/01/20 01:42:55;;;;;;;18.70;3.10;;;;;3.50;101612.00;;;;5066637;28;20232;-72
2022/01/20 01:45:42;;;;;;;17.27;2.93;;;;;3.30;101606.00;;;;5067783;28;20223;-73
2022/01/20 01:48:29;;;;;;;15.90;2.53;;;;;3.40;101604.00;;;;5067494;28;20311;-69
2022/01/20 01:51:15;;;;;;;15.27;2.60;;;;;3.30;101617.00;;;;5067544;28;20231;-73
2022/01/20 01:54:03;;;;;;;9.00;2.23;;;;;3.30;101625.00;;;;5061670;28;20269;-73
2022/01/20 01:56:50;;;;;;;7.77;2.23;;;;;3.40;101626.00;;;;5060525;28;20317;-73
2022/01/20 01:59:36;;;;;;;16.43;2.80;;;;;3.40;101637.00;;;;5066974;28;20395;-71
2022/01/20 02:02:23;;;;;;;15.07;2.47;;;;;3.50;101627.00;;;;5067456;28;20306;-69
2022/01/20 02:05:13;;;;;;;24.03;2.77;;;;;3.60;101644.00;;;;5062722;28;20254;-73
2022/01/20 02:08:24;;;;;;;17.00;2.70;;;;;3.90;101626.00;;;;5063090;28;20247;-71
2022/01/20 02:20:21;;;;;;;12.60;3.33;;;;;4.20;101622.00;;;;5057485;28;20232;-70
2022/01/20 02:23:07;;;;;;;17.10;3.17;;;;;4.10;101617.00;;;;5062794;28;20382;-72
2022/01/20 02:25:54;;;;;;;28.67;3.23;;;;;4.20;101607.00;;;;5043277;28;20240;-72
2022/01/20 02:28:41;;;;;;;18.47;2.77;;;;;4.00;101619.00;;;;5055669;28;21045;-71
2022/01/20 02:31:27;;;;;;;19.77;2.90;;;;;4.10;101612.00;;;;5062020;28;20259;-72
2022/01/20 02:34:16;;;;;;;12.50;2.23;;;;;4.20;101617.00;;;;5059070;28;20231;-72
2022/01/20 02:37:09;;;;;;;20.20;2.67;;;;;4.30;101608.00;;;;5058801;28;20778;-72
2022/01/20 02:40:25;;;;;;;17.53;2.80;;;;;4.30;101609.00;;;;5057245;28;20229;-70
2022/01/20 02:46:12;;;;;;;12.50;2.90;;;;;4.50;101641.00;;;;5063097;28;20234;-73
2022/01/20 02:48:59;;;;;;;5.97;2.10;;;;;4.40;101621.00;;;;5062701;28;20269;-72
2022/01/20 02:51:49;;;;;;;25.90;2.97;;;;;4.50;101615.00;;;;5058204;28;20294;-71
2022/01/20 02:54:36;;;;;;;28.37;3.00;;;;;4.50;101613.00;;;;5064600;28;20234;-71
2022/01/20 02:57:24;;;;;;;15.57;2.37;;;;;4.50;101625.00;;;;5066049;28;20358;-73
2022/01/20 03:00:11;;;;;;;14.73;2.50;;;;;4.60;101625.00;;;;5066386;28;20258;-71
2022/01/20 03:02:57;;;;;;;17.97;2.83;;;;;4.40;101614.00;;;;5064859;28;20610;-71
2022/01/20 03:05:43;;;;;;;12.43;2.53;;;;;4.50;101614.00;;;;5060483;28;20282;-71
2022/01/20 03:08:30;;;;;;;9.90;2.27;;;;;4.50;101614.00;;;;5063986;28;20239;-70
2022/01/20 03:11:18;;;;;;;10.63;2.00;;;;;4.40;101601.00;;;;5065656;28;20239;-72
2022/01/20 03:14:04;;;;;;;24.50;2.60;;;;;4.20;101601.00;;;;5060562;28;20792;-71
2022/01/20 03:16:51;;;;;;;13.40;2.37;;;;;4.30;101598.00;;;;5059240;28;20290;-70
2022/01/20 03:19:37;;;;;;;11.03;1.90;;;;;4.30;101595.00;;;;5065643;28;20346;-71
2022/01/20 03:22:23;;;;;;;16.40;2.67;;;;;4.20;101606.00;;;;5065547;28;20777;-71
2022/01/20 03:25:11;;;;;;;16.20;2.20;;;;;4.20;101603.00;;;;5065653;28;20281;-73
2022/01/20 03:28:00;;;;;;;8.37;2.23;;;;;4.20;101595.00;;;;5055821;28;20240;-70
2022/01/20 03:30:46;;;;;;;16.97;2.37;;;;;4.30;101597.00;;;;5068800;28;20352;-71
2022/01/20 03:33:33;;;;;;;19.37;2.30;;;;;4.40;101595.00;;;;5067971;28;20311;-73
2022/01/20 03:36:19;;;;;;;12.03;2.40;;;;;4.30;101574.00;;;;5065802;28;20293;-73
2022/01/20 03:39:06;;;;;;;10.27;2.43;;;;;4.30;101583.00;;;;5065395;28;20231;-73
2022/01/20 03:41:52;;;;;;;12.70;2.30;;;;;4.20;101584.00;;;;5059592;28;20235;-73
2022/01/20 03:44:39;;;;;;;11.30;2.10;;;;;4.10;101590.00;;;;5065477;28;20227;-72
2022/01/20 03:47:26;;;;;;;13.03;2.37;;;;;4.20;101581.00;;;;5065882;28;20225;-75
2022/01/20 03:53:13;;;;;;;14.43;2.00;;;;;4.10;101584.00;;;;5061297;28;20686;-71
2022/01/20 03:55:59;;;;;;;14.90;3.37;;;;;4.20;101590.00;;;;5063879;28;20235;-71
2022/01/20 03:58:47;;;;;;;10.90;2.10;;;;;4.10;101592.00;;;;5058916;28;20229;-68
2022/01/20 04:01:36;;;;;;;10.07;2.07;;;;;4.10;101584.00;;;;5063765;28;20379;-73
2022/01/20 04:04:22;;;;;;;7.33;1.80;;;;;4.20;101592.00;;;;5065970;28;20924;-72
2022/01/20 04:07:09;;;;;;;9.33;1.87;;;;;4.20;101597.00;;;;5067721;28;20238;-71
2022/01/20 04:09:55;;;;;;;13.27;2.03;;;;;4.10;101595.00;;;;5062927;28;20270;-72
2022/01/20 04:12:41;;;;;;;7.33;1.83;;;;;4.30;101596.00;;;;5070740;28;20236;-71
2022/01/20 04:15:37;;;;;;;17.17;2.17;;;;;4.20;101592.00;;;;5067252;28;20698;-72
2022/01/20 04:18:26;;;;;;;10.77;1.90;;;;;4.30;101583.00;;;;5069040;28;20251;-71
2022/01/20 04:21:12;;;;;;;9.60;1.80;;;;;4.30;101599.00;;;;5068667;28;20228;-68
2022/01/20 04:24:01;;;;;;;17.23;1.97;;;;;4.30;101601.00;;;;5062902;28;20278;-72
2022/01/20 04:26:48;;;;;;;10.63;2.17;;;;;4.40;101584.00;;;;5066816;28;20235;-71
2022/01/20 04:29:34;;;;;;;6.17;2.17;;;;;4.30;101599.00;;;;5068645;28;20803;-71
2022/01/20 04:32:20;;;;;;;9.43;2.37;;;;;4.20;101597.00;;;;5065220;28;20897;-70
2022/01/20 04:35:08;;;;;;;10.07;2.10;;;;;4.50;101608.00;;;;5068384;28;20227;-70
2022/01/20 04:37:57;;;;;;;8.80;1.53;;;;;4.40;101612.00;;;;5067374;28;20223;-73
2022/01/20 04:40:43;;;;;;;11.70;2.47;;;;;4.50;101622.00;;;;5067152;28;20699;-73
2022/01/20 04:43:30;;;;;;;10.70;2.00;;;;;4.50;101618.00;;;;5068614;28;20239;-71
2022/01/20 04:46:24;;;;;;;12.57;2.40;;;;;4.40;101636.00;;;;5065048;28;20231;-69
2022/01/20 04:57:02;;;;;;;10.43;2.43;;;;;4.50;101641.00;;;;5066587;28;20239;-70
2022/01/20 04:58:27;;;;;;;14.70;2.10;;;;;4.60;101638.00;;;;5065843;28;20244;-71
2022/01/20 05:01:13;;;;;;;18.67;2.70;;;;;4.50;101657.00;;;;5068117;28;20272;-72
2022/01/20 05:04:02;;;;;;;8.97;2.17;;;;;4.40;101645.00;;;;5081519;28;20239;-75
2022/01/20 05:06:49;;;;;;;15.33;2.50;;;;;4.40;101658.00;;;;5084110;28;20212;-75
2022/01/20 05:09:37;;;;;;;9.73;2.63;;;;;4.30;101670.00;;;;5083026;28;20228;-73
2022/01/20 05:12:29;;;;;;;8.53;1.90;;;;;4.40;101668.00;;;;5095256;28;20244;-76
2022/01/20 05:15:16;;;;;;;15.93;2.23;;;;;4.50;101677.00;;;;5097826;28;20212;-75
2022/01/20 05:18:02;;;;;;;8.47;1.77;;;;;4.50;101688.00;;;;5092656;28;20284;-75
2022/01/20 05:20:49;;;;;;;7.40;1.60;;;;;4.30;101696.00;;;;5091899;28;20240;-75
2022/01/20 05:23:35;;;;;;;5.30;1.63;;;;;4.30;101682.00;;;;5097221;28;20321;-75
2022/01/20 05:26:23;;;;;;;3.77;1.40;;;;;4.20;101688.00;;;;5098287;28;20239;-75
2022/01/20 05:29:09;;;;;;;4.73;1.87;;;;;4.10;101706.00;;;;5096192;28;20228;-77
2022/01/20 05:31:55;;;;;;;4.97;1.77;;;;;4.00;101695.00;;;;5077594;28;20235;-73
2022/01/20 05:34:42;;;;;;;8.73;1.93;;;;;4.00;101697.00;;;;5055811;28;20719;-74
2022/01/20 05:37:28;;;;;;;7.83;1.60;;;;;4.10;101682.00;;;;5050462;28;20283;-73
2022/01/20 05:40:14;;;;;;;12.10;2.17;;;;;4.20;101694.00;;;;5078673;28;20297;-73
2022/01/20 05:43:04;;;;;;;9.13;1.97;;;;;4.10;101700.00;;;;5055076;28;20358;-74
2022/01/20 05:45:50;;;;;;;6.50;1.60;;;;;3.90;101710.00;;;;5056418;28;20232;-73
2022/01/20 05:48:37;;;;;;;13.50;2.13;;;;;4.00;101721.00;;;;5074092;28;20232;-73
2022/01/20 05:51:23;;;;;;;6.27;1.60;;;;;3.80;101722.00;;;;5067512;28;20723;-75
2022/01/20 05:54:09;;;;;;;7.13;1.57;;;;;3.90;101718.00;;;;5062613;28;20351;-74
2022/01/20 05:56:55;;;;;;;13.40;1.73;;;;;3.90;101731.00;;;;5063288;28;20231;-73
2022/01/20 05:59:43;;;;;;;9.17;1.40;;;;;3.90;101748.00;;;;5067672;28;20705;-74
2022/01/20 06:02:35;;;;;;;5.10;1.40;;;;;4.00;101750.00;;;;5053902;28;20267;-72
2022/01/20 06:05:22;;;;;;;9.47;1.73;;;;;4.00;101744.00;;;;5072449;28;20249;-73
2022/01/20 06:08:09;;;;;;;9.93;1.60;;;;;3.90;101746.00;;;;5068649;28;20230;-71
2022/01/20 06:10:55;;;;;;;8.17;1.80;;;;;3.80;101743.00;;;;5062478;28;20228;-71
2022/01/20 06:13:42;;;;;;;14.87;1.90;;;;;3.80;101753.00;;;;5069523;28;20376;-72
2022/01/20 06:16:29;;;;;;;13.80;1.73;;;;;3.70;101748.00;;;;5059626;28;20233;-73
2022/01/20 06:19:16;;;;;;;13.43;1.70;;;;;3.70;101746.00;;;;5060066;28;20297;-71
2022/01/20 06:22:03;;;;;;;5.27;1.70;;;;;3.80;101738.00;;;;5070412;28;20241;-72
2022/01/20 06:24:55;;;;;;;8.13;1.97;;;;;3.60;101758.00;;;;5051413;28;20620;-71
2022/01/20 06:27:41;;;;;;;9.13;1.87;;;;;3.40;101764.00;;;;5054063;28;20227;-73
2022/01/20 06:30:28;;;;;;;6.47;1.27;;;;;3.40;101772.00;;;;5054405;28;20786;-73
2022/01/20 06:33:17;;;;;;;10.47;2.27;;;;;3.40;101786.00;;;;5066483;28;20353;-73
2022/01/20 06:36:03;;;;;;;14.10;2.93;;;;;3.40;101779.00;;;;5062801;28;20377;-74
2022/01/20 06:38:49;;;;;;;10.17;2.07;;;;;3.40;101789.00;;;;5075908;28;20233;-74
2022/01/20 06:41:37;;;;;;;11.73;1.83;;;;;3.50;101786.00;;;;5064835;28;20236;-73
2022/01/20 06:44:25;;;;;;;18.97;2.10;;;;;3.60;101801.00;;;;5064029;28;20232;-75
2022/01/20 06:47:13;;;;;;;11.07;1.60;;;;;3.50;101793.00;;;;5065777;28;20274;-76
2022/01/20 06:50:01;;;;;;;8.97;1.87;;;;;3.40;101781.00;;;;5060117;28;20314;-74
2022/01/20 06:52:47;;;;;;;10.70;1.80;;;;;3.50;101797.00;;;;5065973;28;20239;-73
2022/01/20 06:55:36;;;;;;;8.63;1.53;;;;;3.40;101823.00;;;;5065368;28;20263;-70
2022/01/20 06:58:23;;;;;;;8.80;1.50;;;;;3.50;101829.00;;;;5061865;28;20306;-71
2022/01/20 07:01:09;;;;;;;9.17;1.47;;;;;3.50;101847.00;;;;5075000;28;20240;-75
2022/01/20 07:03:55;;;;;;;8.40;1.53;;;;;3.40;101858.00;;;;5049208;28;20306;-73
2022/01/20 07:06:43;;;;;;;12.60;2.13;;;;;3.50;101870.00;;;;5066366;28;20243;-73
2022/01/20 07:09:29;;;;;;;7.17;1.80;;;;;3.50;101872.00;;;;5065735;28;20719;-74
2022/01/20 07:12:16;;;;;;;13.53;1.50;;;;;3.50;101885.00;;;;5065850;28;20245;-73
2022/01/20 07:15:03;;;;;;;9.87;2.03;;;;;3.60;101878.00;;;;5062028;28;20227;-75
2022/01/20 07:17:49;;;;;;;8.23;2.17;;;;;3.60;101900.00;;;;5072037;28;20239;-73
2022/01/20 07:20:36;;;;;;;12.47;2.50;;;;;3.70;101898.00;;;;5062963;28;20362;-73
2022/01/20 07:23:24;;;;;;;16.53;2.00;;;;;3.70;101908.00;;;;5061858;28;20237;-74
2022/01/20 07:26:10;;;;;;;9.17;1.97;;;;;3.60;101895.00;;;;5060452;28;20229;-72
2022/01/20 07:28:56;;;;;;;7.50;1.97;;;;;3.60;101899.00;;;;5064412;28;20292;-75
2022/01/20 07:31:42;;;;;;;7.47;1.53;;;;;3.50;101886.00;;;;5064922;28;20360;-71
2022/01/20 07:34:28;;;;;;;9.77;1.83;;;;;3.40;101884.00;;;;5065488;28;20250;-72
2022/01/20 07:37:15;;;;;;;7.53;2.20;;;;;3.40;101844.00;;;;5065888;28;20231;-70
2022/01/20 07:40:03;;;;;;;12.13;1.87;;;;;3.20;101894.00;;;;5060058;28;20317;-72
2022/01/20 07:42:50;;;;;;;10.90;2.10;;;;;3.30;101882.00;;;;5065366;28;20235;-73
2022/01/20 07:45:37;;;;;;;7.87;1.53;;;;;3.00;101912.00;;;;5065763;28;20292;-71
2022/01/20 07:48:23;;;;;;;11.40;1.87;;;;;2.80;101917.00;;;;5066849;28;20228;-71
2022/01/20 07:51:10;;;;;;;7.40;1.40;;;;;3.20;101913.00;;;;5060565;28;20243;-71
2022/01/20 07:53:56;;;;;;;4.77;1.30;;;;;3.10;101911.00;;;;5060843;28;20315;-73
2022/01/20 07:56:44;;;;;;;6.63;1.53;;;;;3.20;101915.00;;;;5057604;28;20227;-71
2022/01/20 07:59:31;;;;;;;9.43;1.67;;;;;3.10;101924.00;;;;5065558;28;20281;-70
2022/01/20 08:02:18;;;;;;;10.00;1.53;;;;;3.10;101924.00;;;;5065029;28;20318;-72
2022/01/20 08:05:06;;;;;;;15.80;2.00;;;;;3.10;101928.00;;;;5060140;28;20878;-72
2022/01/20 08:07:52;;;;;;;12.87;2.10;;;;;3.10;101928.00;;;;5065500;28;20316;-72
2022/01/20 08:10:39;;;;;;;6.40;1.83;;;;;3.20;101917.00;;;;5065297;28;20235;-75
2022/01/20 08:13:26;;;;;;;5.57;1.57;;;;;3.30;101930.00;;;;5060648;28;20305;-73
2022/01/20 08:16:12;;;;;;;11.97;1.87;;;;;3.40;101929.00;;;;5065122;28;20311;-72
2022/01/20 08:18:59;;;;;;;8.90;1.73;;;;;3.40;101930.00;;;;5058958;28;20262;-73
2022/01/20 08:21:45;;;;;;;11.10;2.33;;;;;3.50;101930.00;;;;5062708;28;21067;-70
2022/01/20 08:24:32;;;;;;;8.40;2.23;;;;;3.50;101930.00;;;;5065280;28;20228;-72
2022/01/20 08:27:19;;;;;;;6.90;1.90;;;;;3.50;101940.00;;;;5062699;28;20228;-71
2022/01/20 08:30:10;;;;;;;10.47;1.90;;;;;3.60;101949.00;;;;5064584;28;20290;-75
2022/01/20 08:32:56;;;;;;;5.83;1.93;;;;;3.40;101955.00;;;;5058307;28;20601;-72
2022/01/20 08:35:43;;;;;;;12.13;2.27;;;;;3.50;101966.00;;;;5065030;28;20271;-71
2022/01/20 08:38:29;;;;;;;8.10;1.90;;;;;3.60;101956.00;;;;5065017;28;20367;-72
2022/01/20 08:41:15;;;;;;;6.13;2.17;;;;;3.70;101963.00;;;;5061622;28;20297;-68
2022/01/20 08:44:01;;;;;;;11.57;2.00;;;;;3.70;101972.00;;;;5065061;28;20229;-71
2022/01/20 08:46:49;;;;;;;14.00;2.17;;;;;3.70;101957.00;;;;5057649;28;20732;-72
2022/01/20 08:49:36;;;;;;;9.67;2.10;;;;;3.70;101958.00;;;;5064071;28;20287;-70
2022/01/20 08:52:22;;;;;;;14.93;2.83;;;;;3.70;101967.00;;;;5056477;28;20710;-72
2022/01/20 08:55:09;;;;;;;9.33;1.80;;;;;3.70;101972.00;;;;5068232;28;20759;-68
2022/01/20 08:57:57;;;;;;;4.60;1.40;;;;;3.60;101962.00;;;;5061886;28;20231;-70
2022/01/20 09:00:43;;;;;;;14.03;1.70;;;;;3.70;101966.00;;;;5068134;28;20745;-71
2022/01/20 09:03:33;;;;;;;6.70;1.60;;;;;3.70;101965.00;;;;5071755;28;20271;-72
2022/01/20 09:06:19;;;;;;;6.57;1.53;;;;;3.80;101985.00;;;;5055382;28;20219;-70
2022/01/20 09:09:07;;;;;;;7.50;1.80;;;;;3.90;101984.00;;;;5056495;28;20266;-71
2022/01/20 09:12:05;;;;;;;7.13;2.10;;;;;4.00;102001.00;;;;5060999;28;20232;-71
2022/01/20 09:17:56;;;;;;;5.57;1.57;;;;;4.10;101989.00;;;;5062979;28;20583;-71
2022/01/20 09:20:43;;;;;;;12.13;1.90;;;;;4.00;101997.00;;;;5067471;28;20298;-73
2022/01/20 09:23:31;;;;;;;9.67;1.90;;;;;4.10;101990.00;;;;5067972;28;20228;-70
2022/01/20 09:26:17;;;;;;;4.60;1.87;;;;;4.00;101991.00;;;;5068167;28;20268;-71
2022/01/20 09:29:04;;;;;;;9.43;1.63;;;;;4.20;101992.00;;;;5062453;28;20782;-71
2022/01/20 09:31:52;;;;;;;10.20;1.80;;;;;4.10;101989.00;;;;5064425;28;20274;-72
2022/01/20 09:34:39;;;;;;;15.97;2.40;;;;;4.20;101977.00;;;;5068145;28;20691;-71
2022/01/20 09:37:27;;;;;;;4.50;1.57;;;;;4.20;101986.00;;;;5062890;28;20224;-74
2022/01/20 09:40:13;;;;;;;6.77;1.80;;;;;4.10;101981.00;;;;5056650;28;20242;-74
2022/01/20 09:43:00;;;;;;;9.00;1.60;;;;;4.30;101984.00;;;;5077873;28;20599;-75
2022/01/20 09:45:49;;;;;;;9.43;1.50;;;;;4.10;101994.00;;;;5065617;28;20953;-74
2022/01/20 09:48:35;;;;;;;9.57;1.73;;;;;4.30;101993.00;;;;5067427;28;20375;-73
2022/01/20 09:51:22;;;;;;;10.40;1.63;;;;;4.30;101989.00;;;;5064629;28;20239;-72
2022/01/20 09:54:10;;;;;;;11.37;1.97;;;;;4.30;101998.00;;;;5067057;28;20242;-73
2022/01/20 09:56:57;;;;;;;4.70;1.50;;;;;4.20;102004.00;;;;5061005;28;20232;-73
2022/01/20 09:59:44;;;;;;;7.77;1.50;;;;;4.50;102002.00;;;;5066437;28;20232;-73
2022/01/20 10:02:32;;;;;;;9.33;1.50;;;;;4.50;102014.00;;;;5066948;28;20372;-70
2022/01/20 10:05:32;;;;;;;11.00;1.87;;;;;4.40;102023.00;;;;5067297;28;20714;-73
2022/01/20 10:08:22;;;;;;;10.87;1.80;;;;;4.50;102012.00;;;;5067200;28;20707;-72
2022/01/20 10:11:10;;;;;;;8.57;1.60;;;;;4.50;101978.00;;;;5066607;28;20616;-72
2022/01/20 10:13:59;;;;;;;3.50;1.60;;;;;4.50;102016.00;;;;5058629;28;20251;-71
2022/01/20 10:16:45;;;;;;;5.47;1.37;;;;;4.50;102026.00;;;;5068233;28;20595;-72
2022/01/20 10:19:32;;;;;;;7.20;1.80;;;;;4.30;102027.00;;;;5067331;28;20247;-71
2022/01/20 10:22:23;;;;;;;7.23;1.80;;;;;4.40;102042.00;;;;5066033;28;20242;-72
2022/01/20 10:25:12;;;;;;;13.00;2.10;;;;;4.40;102033.00;;;;5065627;28;20223;-73
2022/01/20 10:28:00;;;;;;;8.67;2.13;;;;;4.50;102047.00;;;;5055758;28;20334;-69
2022/01/20 10:30:47;;;;;;;4.80;2.03;;;;;4.60;102036.00;;;;5052319;28;20364;-72
2022/01/20 10:33:40;;;;;;;9.43;1.97;;;;;4.70;102040.00;;;;5052602;28;20268;-71
2022/01/20 10:36:26;;;;;;;7.27;1.90;;;;;4.70;102052.00;;;;5056040;28;20601;-70
2022/01/20 10:39:13;;;;;;;14.07;2.40;;;;;4.80;102055.00;;;;5056094;28;20987;-72
2022/01/20 10:42:00;;;;;;;7.83;1.90;;;;;4.90;102053.00;;;;5051294;28;20747;-73
2022/01/20 10:44:51;;;;;;;8.13;1.57;;;;;4.70;102061.00;;;;5059691;28;20231;-73
2022/01/20 10:47:48;;;;;;;4.30;1.43;;;;;4.60;102079.00;;;;5063213;28;20266;-72
2022/01/20 10:50:37;;;;;;;9.33;1.80;;;;;4.70;102078.00;;;;5080299;28;20328;-71
2022/01/20 10:53:25;;;;;;;8.27;1.80;;;;;4.70;102069.00;;;;5067625;28;20290;-72
2022/01/20 10:56:11;;;;;;;6.53;1.70;;;;;4.70;102067.00;;;;5066824;28;20322;-74
2022/01/20 10:59:07;;;;;;;10.97;1.83;;;;;4.80;102062.00;;;;5060647;28;20232;-69
2022/01/20 11:02:04;;;;;;;12.07;2.00;;;;;5.00;102050.00;;;;5050742;28;20228;-69
2022/01/20 11:04:52;;;;;;;12.80;2.13;;;;;5.00;102048.00;;;;5058908;28;20219;-71
2022/01/20 11:07:40;;;;;;;11.90;2.27;;;;;5.20;102045.00;;;;5066003;28;20747;-71
2022/01/20 11:10:26;;;;;;;8.60;1.80;;;;;5.30;102046.00;;;;5065832;28;20278;-70
2022/01/20 11:13:14;;;;;;;11.53;1.97;;;;;5.40;102050.00;;;;5060679;28;21604;-70
2022/01/20 11:16:01;;;;;;;13.03;1.83;;;;;5.50;101993.00;;;;5056053;28;20744;-69
2022/01/20 11:18:49;;;;;;;10.33;2.07;;;;;5.70;102045.00;;;;5060399;28;20232;-70
2022/01/20 11:21:37;;;;;;;9.03;1.93;;;;;5.60;102043.00;;;;5058010;28;20243;-72
2022/01/20 11:24:26;;;;;;;5.30;1.53;;;;;5.70;102043.00;;;;5056776;28;20228;-71
2022/01/20 11:27:14;;;;;;;18.20;2.00;;;;;5.60;102056.00;;;;5061512;28;20227;-71
2022/01/20 11:30:02;;;;;;;10.37;1.67;;;;;5.60;102047.00;;;;5073668;28;20231;-68
2022/01/20 11:32:59;;;;;;;6.97;1.60;;;;;5.50;102043.00;;;;5057418;28;20231;-73
2022/01/20 11:35:49;;;;;;;6.50;1.80;;;;;5.70;102023.00;;;;5057815;28;20231;-72
2022/01/20 11:38:41;;;;;;;4.83;1.60;;;;;5.50;102011.00;;;;5065172;28;20442;-71
2022/01/20 11:41:35;;;;;;;9.23;1.93;;;;;5.20;102031.00;;;;5065510;28;20714;-71
2022/01/20 11:44:27;;;;;;;10.37;1.93;;;;;5.10;102022.00;;;;5063128;28;20232;-72
2022/01/20 11:47:13;;;;;;;9.93;2.00;;;;;5.10;102025.00;;;;5065768;28;20331;-71
2022/01/20 11:50:00;;;;;;;10.93;2.10;;;;;5.20;102026.00;;;;5059808;28;20239;-72
2022/01/20 11:52:48;;;;;;;3.83;1.63;;;;;5.10;102028.00;;;;5065125;28;20239;-73
2022/01/20 11:55:50;;;;;;;8.60;1.73;;;;;5.20;102034.00;;;;5061784;28;20232;-72
2022/01/20 11:58:37;;;;;;;8.23;2.40;;;;;5.40;102029.00;;;;5065547;28;20485;-72
2022/01/20 12:01:27;;;;;;;14.83;3.93;;;;;5.40;102032.00;;;;5062787;28;20224;-73
2022/01/20 12:04:13;;;;;;;6.10;1.57;;;;;5.30;102022.00;;;;5065430;28;20258;-70
2022/01/20 12:06:59;;;;;;;11.03;2.00;;;;;5.40;102028.00;;;;5050311;28;20220;-70
2022/01/20 12:09:51;;;;;;;7.33;2.00;;;;;5.30;102008.00;;;;5055414;28;20251;-73
2022/01/20 12:12:39;;;;;;;8.43;1.40;;;;;5.40;102020.00;;;;5053880;28;20244;-70
2022/01/20 12:15:25;;;;;;;9.47;2.13;;;;;5.60;102023.00;;;;5056850;28;20745;-71
2022/01/20 12:18:11;;;;;;;10.53;2.10;;;;;5.50;102015.00;;;;5053669;28;20231;-70
2022/01/20 12:21:01;;;;;;;8.63;1.70;;;;;5.70;102015.00;;;;5060057;28;20715;-71
2022/01/20 12:23:49;;;;;;;13.63;1.97;;;;;5.60;102006.00;;;;5053411;28;20722;-70
2022/01/20 12:26:37;;;;;;;5.40;1.40;;;;;6.00;102004.00;;;;5059899;28;20602;-72
2022/01/20 12:29:34;;;;;;;6.47;1.97;;;;;6.00;102000.00;;;;5059843;28;20228;-73
2022/01/20 12:32:24;;;;;;;10.33;1.47;;;;;6.00;102021.00;;;;5064864;28;20228;-74
2022/01/20 12:35:10;;;;;;;4.93;1.73;;;;;5.90;102003.00;;;;5068838;28;20236;-70
2022/01/20 12:37:56;;;;;;;5.83;1.80;;;;;6.00;102014.00;;;;5062696;28;20232;-73
2022/01/20 12:40:43;;;;;;;6.47;1.70;;;;;6.10;102006.00;;;;5069716;28;20232;-72
2022/01/20 12:43:40;;;;;;;10.03;2.20;;;;;6.30;102001.00;;;;5069437;28;20251;-69
2022/01/20 12:46:28;;;;;;;9.73;1.67;;;;;6.30;101985.00;;;;5066462;28;20235;-68
2022/01/20 12:49:16;;;;;;;8.60;1.87;;;;;6.20;101988.00;;;;5068413;28;20240;-73
2022/01/20 12:52:06;;;;;;;8.47;1.93;;;;;6.30;101968.00;;;;5062934;28;20827;-71
2022/01/20 12:54:53;;;;;;;10.77;1.47;;;;;6.50;101972.00;;;;5061907;28;20236;-73
2022/01/20 12:57:39;;;;;;;7.00;1.37;;;;;6.40;101964.00;;;;5068082;28;20591;-70
2022/01/20 13:00:27;;;;;;;8.73;1.73;;;;;6.30;101983.00;;;;5068543;28;20844;-71
2022/01/20 13:03:13;;;;;;;5.30;1.40;;;;;6.10;102001.00;;;;5064619;28;20722;-73
2022/01/20 13:06:00;;;;;;;9.93;1.87;;;;;5.70;102004.00;;;;5064473;28;20224;-72
2022/01/20 13:08:56;;;;;;;7.10;1.97;;;;;5.40;102004.00;;;;5061186;28;20594;-71
2022/01/20 13:11:49;;;;;;;6.87;1.70;;;;;4.90;102012.00;;;;5067685;28;20232;-73
2022/01/20 13:14:38;;;;;;;10.03;1.67;;;;;4.70;102020.00;;;;5068299;28;20281;-69
2022/01/20 13:17:30;;;;;;;9.13;1.63;;;;;4.70;102035.00;;;;5068760;28;20362;-72
2022/01/20 13:20:19;;;;;;;5.37;1.30;;;;;4.70;102037.00;;;;5065068;28;20235;-74
2022/01/20 13:23:54;;;;;;;3.77;1.13;;;;;4.80;102041.00;;;;5063382;28;20243;-72
2022/01/20 13:26:15;;;;;;;6.80;1.53;;;;;4.60;102049.00;;;;5064245;28;20235;-71
2022/01/20 13:29:04;;;;;;;5.90;1.40;;;;;4.50;102069.00;;;;5062454;28;20224;-72
2022/01/20 13:31:58;;;;;;;7.27;1.37;;;;;4.50;102075.00;;;;5063833;28;20235;-71
2022/01/20 13:34:56;;;;;;;5.07;1.60;;;;;4.20;102035.00;;;;5064079;28;20230;-70
2022/01/20 13:37:42;;;;;;;3.73;1.13;;;;;4.20;102035.00;;;;5068152;28;20224;-70
2022/01/20 13:40:29;;;;;;;3.03;1.30;;;;;4.30;102037.00;;;;5066576;28;20223;-72
2022/01/20 13:46:27;;;;;;;4.67;1.30;;;;;4.40;102052.00;;;;5020313;28;20236;-72
2022/01/20 13:49:15;;;;;;;5.10;2.03;;;;;4.40;102044.00;;;;5067549;28;20302;-71
2022/01/20 13:52:06;;;;;;;3.63;1.30;;;;;4.30;102048.00;;;;5061659;28;20374;-72
2022/01/20 13:54:55;;;;;;;5.50;1.47;;;;;4.20;102049.00;;;;5061265;28;20243;-75
2022/01/20 13:57:59;;;;;;;2.17;1.30;;;;;4.10;102046.00;;;;5059340;28;20604;-73
2022/01/20 14:00:45;;;;;;;3.97;1.00;;;;;4.10;102060.00;;;;5071733;28;20290;-71
2022/01/20 14:03:32;;;;;;;3.23;1.00;;;;;4.10;102058.00;;;;5067041;28;20274;-72
2022/01/20 14:06:18;;;;;;;4.70;1.50;;;;;4.10;102053.00;;;;5067036;28;20230;-73
2022/01/20 14:09:06;;;;;;;2.97;1.00;;;;;4.30;102062.00;;;;5066911;28;20691;-68
2022/01/20 14:11:52;;;;;;;3.07;1.13;;;;;4.10;102060.00;;;;5060153;28;20308;-72
2022/01/20 14:14:39;;;;;;;4.20;1.50;;;;;4.10;102054.00;;;;5066231;28;20774;-71
2022/01/20 14:17:26;;;;;;;3.67;1.13;;;;;4.10;102074.00;;;;5065905;28;20827;-72
2022/01/20 14:20:13;;;;;;;3.90;1.10;;;;;4.40;102067.00;;;;5060722;28;20680;-72
2022/01/20 14:23:02;;;;;;;4.63;1.13;;;;;4.60;102074.00;;;;5068844;28;20707;-71
2022/01/20 14:25:50;;;;;;;7.53;1.40;;;;;4.60;102074.00;;;;5066805;28;20348;-72
2022/01/20 14:28:36;;;;;;;5.10;1.40;;;;;4.60;102072.00;;;;5066576;28;20643;-72
2022/01/20 14:31:23;;;;;;;6.10;1.47;;;;;4.70;102061.00;;;;5066303;28;20738;-68
2022/01/20 14:34:09;;;;;;;5.83;1.40;;;;;4.60;102069.00;;;;5057725;28;20250;-72
2022/01/20 14:36:55;;;;;;;4.23;1.40;;;;;4.40;102070.00;;;;5062125;28;20231;-73
2022/01/20 14:39:41;;;;;;;5.77;1.40;;;;;4.30;102073.00;;;;5066694;28;20589;-72
2022/01/20 14:42:29;;;;;;;6.27;1.50;;;;;4.40;102053.00;;;;5066089;28;20784;-73
2022/01/20 14:45:18;;;;;;;3.10;1.80;;;;;4.20;102077.00;;;;5066887;28;20275;-71
2022/01/20 14:48:05;;;;;;;3.03;1.53;;;;;4.10;102082.00;;;;5061237;28;20236;-72